Time;durP1;ratioP1;P1;durP2;ratioP2;P2;SDS_P1;SDS_P2;PMS_P1;PMS_P2;Temp;Humidity;BMP_temperature;BMP_pressure;BME280_temperature;BME280_humidity;BME280_pressure;Samples;Min_cycle;Max_cycle;Signal;HPM_P1;HPM_P2
2022/06/21 00:01:27;;;;;;;;;7.75;7.75;;;;;22.40;45.24;100571.78;5088900;27;47038;-60
2022/06/21 00:03:54;;;;;;;;;7.25;7.00;;;;;22.41;45.36;100565.44;5081242;27;45515;-60
2022/06/21 00:06:24;;;;;;;;;7.25;7.25;;;;;22.39;45.23;100554.84;5095764;27;45418;-59
2022/06/21 00:08:49;;;;;;;;;8.00;8.00;;;;;22.37;45.58;100559.47;5089009;27;45460;-59
2022/06/21 00:11:28;;;;;;;;;9.00;9.00;;;;;22.33;45.30;100549.19;5091667;27;46434;-59
2022/06/21 00:13:54;;;;;;;;;8.00;8.00;;;;;22.31;45.41;100548.44;5061475;28;45569;-59
2022/06/21 00:16:22;;;;;;;;;9.00;9.00;;;;;22.30;45.68;100542.25;5061553;27;45637;-61
2022/06/21 00:18:49;;;;;;;;;6.00;6.00;;;;;22.31;45.83;100538.56;5084256;27;45656;-60
2022/06/21 00:21:17;;;;;;;;;8.00;7.00;;;;;22.30;45.97;100538.69;5081112;27;46212;-58
2022/06/21 00:23:42;;;;;;;;;8.67;8.67;;;;;22.30;45.66;100539.56;5084115;27;45497;-59
2022/06/21 00:26:13;;;;;;;;;8.67;8.67;;;;;22.28;45.93;100536.16;5076776;27;45474;-58
2022/06/21 00:28:39;;;;;;;;;9.00;7.33;;;;;22.26;45.99;100538.97;5085765;27;45564;-61
2022/06/21 00:31:29;;;;;;;;;10.33;10.33;;;;;22.24;46.00;100532.88;5078650;27;46434;-59
2022/06/21 00:33:56;;;;;;;;;10.00;9.00;;;;;22.22;45.41;100545.59;5089478;27;45473;-60
2022/06/21 00:36:25;;;;;;;;;9.67;9.67;;;;;22.18;45.94;100541.44;5078846;27;45611;-59
2022/06/21 00:38:53;;;;;;;;;8.33;8.00;;;;;22.16;45.89;100539.84;5082048;27;45627;-59
2022/06/21 00:41:25;;;;;;;;;8.67;8.67;;;;;22.16;46.36;100548.72;5079764;27;45688;-58
2022/06/21 00:43:53;;;;;;;;;11.00;11.00;;;;;22.13;46.20;100540.09;5079189;27;45507;-58
2022/06/21 00:46:32;;;;;;;;;12.33;10.33;;;;;22.10;46.23;100537.69;5086495;27;45624;-59
2022/06/21 00:49:01;;;;;;;;;9.00;9.00;;;;;22.11;46.38;100528.66;5079040;27;45461;-60
2022/06/21 00:51:40;;;;;;;;;11.00;11.00;;;;;22.09;46.32;100536.84;5075966;27;45498;-58
2022/06/21 00:54:29;;;;;;;;;10.75;9.75;;;;;22.06;46.36;100545.16;5090429;27;45504;-60
2022/06/21 00:57:03;;;;;;;;;9.00;9.00;;;;;22.04;46.18;100552.47;5080613;27;45476;-59
2022/06/21 00:59:33;;;;;;;;;11.00;11.00;;;;;22.02;46.40;100551.72;5090646;27;45525;-61
2022/06/21 01:02:04;;;;;;;;;8.33;8.33;;;;;22.02;46.28;100557.09;5081751;27;46539;-58
2022/06/21 01:04:41;;;;;;;;;10.00;9.33;;;;;22.01;46.31;100550.88;5080518;27;45501;-57
2022/06/21 01:07:10;;;;;;;;;10.00;10.00;;;;;22.03;46.54;100559.66;5080005;27;45578;-60
2022/06/21 01:10:03;;;;;;;;;10.33;10.33;;;;;21.99;46.50;100560.88;5086515;27;45700;-58
2022/06/21 01:12:37;;;;;;;;;10.33;10.33;;;;;21.97;46.39;100548.59;5085387;27;45555;-60
2022/06/21 01:15:08;;;;;;;;;9.50;8.50;;;;;21.97;46.26;100549.44;5079180;27;45446;-61
2022/06/21 01:17:35;;;;;;;;;10.00;10.00;;;;;22.00;46.25;100553.69;5077009;27;45534;-58
2022/06/21 01:20:12;;;;;;;;;10.00;9.00;;;;;22.02;46.27;100554.41;5086527;27;45414;-59
2022/06/21 01:23:06;;;;;;;;;11.00;10.00;;;;;21.98;46.46;100551.16;5079921;27;45469;-58
2022/06/21 01:25:43;;;;;;;;;9.00;9.00;;;;;22.01;46.20;100566.13;5079567;27;45523;-58
2022/06/21 01:28:09;;;;;;;;;10.67;10.67;;;;;21.97;46.35;100562.81;5090511;27;45525;-59
2022/06/21 01:30:36;;;;;;;;;8.00;8.00;;;;;21.96;45.92;100557.63;5091273;27;45634;-59
2022/06/21 01:33:02;;;;;;;;;9.50;9.50;;;;;21.96;46.37;100550.41;5083472;27;45663;-58
2022/06/21 01:35:40;;;;;;;;;11.00;9.50;;;;;21.97;46.32;100562.81;5088631;27;45441;-61
2022/06/21 01:38:11;;;;;;;;;10.67;10.67;;;;;21.99;46.35;100573.41;5078496;27;45524;-60
2022/06/21 01:40:44;;;;;;;;;8.75;8.75;;;;;21.99;46.44;100573.41;5057980;28;45607;-60
2022/06/21 01:43:14;;;;;;;;;9.25;8.75;;;;;21.99;46.10;100578.78;5087483;27;45619;-59
2022/06/21 01:45:45;;;;;;;;;10.00;10.00;;;;;21.97;46.18;100584.25;5084442;27;45557;-59
2022/06/21 01:48:22;;;;;;;;;10.33;10.33;;;;;21.96;46.38;100587.06;5082357;27;45530;-60
2022/06/21 01:50:50;;;;;;;;;8.33;8.33;;;;;21.94;46.39;100599.72;5095154;27;45489;-58
2022/06/21 01:53:19;;;;;;;;;10.33;9.67;;;;;21.87;46.51;100609.25;5062302;27;46269;-60
2022/06/21 01:55:50;;;;;;;;;10.00;10.00;;;;;21.90;46.24;100638.47;5082029;27;45523;-60
2022/06/21 01:58:26;;;;;;;;;10.00;10.00;;;;;21.91;46.36;100645.50;5084345;27;45558;-59
2022/06/21 02:01:39;;;;;;;;;9.33;9.33;;;;;21.91;46.37;100658.91;5089100;27;45480;-59
2022/06/21 02:04:07;;;;;;;;;11.50;11.50;;;;;21.91;46.27;100653.53;4986400;28;46290;-59
2022/06/21 02:06:37;;;;;;;;;9.00;9.00;;;;;21.88;46.44;100646.63;5070613;27;45585;-59
2022/06/21 02:09:15;;;;;;;;;14.67;12.67;;;;;21.89;46.48;100639.41;5074145;27;45554;-60
2022/06/21 02:11:47;;;;;;;;;13.33;12.00;;;;;21.84;46.33;100637.13;5082673;27;45446;-59
2022/06/21 02:14:28;;;;;;;;;10.67;10.67;;;;;21.88;46.47;100643.09;5074719;27;46133;-60
2022/06/21 02:16:56;;;;;;;;;11.00;11.00;;;;;21.91;46.61;100637.47;5074753;28;45491;-60
2022/06/21 02:19:31;;;;;;;;;12.00;11.00;;;;;21.91;46.40;100632.13;5074867;28;45522;-60
2022/06/21 02:21:56;;;;;;;;;12.33;12.33;;;;;21.89;46.57;100618.00;5075000;28;45613;-61
2022/06/21 02:24:23;;;;;;;;;10.33;10.33;;;;;21.86;46.58;100596.84;5074883;28;45526;-60
2022/06/21 02:26:51;;;;;;;;;11.00;11.00;;;;;21.82;46.98;100589.06;5075655;27;45624;-59
2022/06/21 02:29:16;;;;;;;;;13.00;12.67;;;;;21.81;46.70;100583.81;5095442;27;45430;-58
2022/06/21 02:31:44;;;;;;;;;8.67;7.67;;;;;21.82;46.81;100572.16;5094907;27;45472;-59
2022/06/21 02:34:31;;;;;;;;;10.33;9.67;;;;;21.83;46.74;100572.00;5084149;27;45768;-58
2022/06/21 02:36:59;;;;;;;;;12.33;11.67;;;;;21.82;46.74;100564.13;5073028;27;45563;-59
2022/06/21 02:39:28;;;;;;;;;9.00;9.00;;;;;21.90;46.61;100568.84;5095500;27;45475;-60
2022/06/21 02:42:05;;;;;;;;;9.67;9.67;;;;;21.87;46.88;100553.00;5092819;27;45675;-60
2022/06/21 02:44:38;;;;;;;;;11.00;11.00;;;;;21.86;46.83;100562.88;5095134;27;45601;-58
2022/06/21 02:47:13;;;;;;;;;10.33;10.33;;;;;21.84;46.84;100551.44;5094950;27;45589;-60
2022/06/21 02:49:47;;;;;;;;;9.33;9.33;;;;;21.85;47.10;100553.16;5095289;27;45496;-61
2022/06/21 02:52:15;;;;;;;;;10.33;10.33;;;;;21.85;46.87;100545.13;5095343;27;45604;-59
2022/06/21 02:54:49;;;;;;;;;10.00;9.00;;;;;21.87;47.03;100553.00;5095044;27;46367;-58
2022/06/21 02:57:30;;;;;;;;;10.33;10.33;;;;;21.82;47.13;100545.38;5077624;27;45529;-58
2022/06/21 02:59:56;;;;;;;;;9.00;9.00;;;;;21.83;47.32;100536.34;5078407;28;45534;-61
2022/06/21 03:02:25;;;;;;;;;10.00;10.00;;;;;21.82;47.36;100538.19;5078275;28;45590;-59
2022/06/21 03:04:58;;;;;;;;;10.33;10.33;;;;;21.78;47.37;100536.72;5077933;28;46640;-58
2022/06/21 03:07:28;;;;;;;;;11.00;11.00;;;;;21.80;47.59;100534.78;5078561;27;45508;-58
2022/06/21 03:09:54;;;;;;;;;12.67;12.00;;;;;21.78;47.56;100519.81;5090838;27;45439;-60
2022/06/21 03:12:26;;;;;;;;;11.67;11.67;;;;;21.79;47.77;100526.91;5098607;27;45417;-57
2022/06/21 03:14:57;;;;;;;;;10.33;10.33;;;;;21.76;48.15;100514.63;5098300;27;45754;-58
2022/06/21 03:17:30;;;;;;;;;13.33;12.00;;;;;21.76;48.08;100511.94;5098459;27;45422;-59
2022/06/21 03:19:56;;;;;;;;;10.67;10.67;;;;;21.74;48.36;100499.66;5080274;27;45463;-60
2022/06/21 03:22:24;;;;;;;;;11.00;11.00;;;;;21.68;48.44;100487.66;5098392;27;45374;-60
2022/06/21 03:24:54;;;;;;;;;13.00;12.00;;;;;21.64;48.48;100475.47;5081467;27;45678;-60
2022/06/21 03:27:28;;;;;;;;;10.00;10.00;;;;;21.66;48.48;100475.38;5059479;28;45427;-58
2022/06/21 03:29:55;;;;;;;;;10.67;10.67;;;;;21.64;48.85;100461.25;5078021;28;45400;-61
2022/06/21 03:32:22;;;;;;;;;11.00;10.33;;;;;21.61;48.57;100457.84;5077960;28;45514;-59
2022/06/21 03:34:50;;;;;;;;;11.00;11.00;;;;;21.59;48.75;100450.94;5077901;28;45728;-61
2022/06/21 03:37:16;;;;;;;;;13.00;11.67;;;;;21.57;48.79;100439.50;5078035;27;45477;-60
2022/06/21 03:42:31;;;;;;;;;9.67;9.67;;;;;21.50;48.56;100425.78;5078415;27;45495;-61
2022/06/21 03:45:03;;;;;;;;;14.33;12.00;;;;;21.45;48.90;100421.81;5077634;28;46161;-59
2022/06/21 03:47:58;;;;;;;;;11.00;11.00;;;;;21.35;49.41;100413.66;5077561;28;45497;-60
2022/06/21 03:50:46;;;;;;;;;12.33;12.33;;;;;21.30;49.75;100400.66;5041157;28;45502;-60
2022/06/21 03:53:18;;;;;;;;;12.00;12.00;;;;;21.29;50.00;100395.44;5059285;28;45454;-60
2022/06/21 03:56:01;;;;;;;;;10.33;10.33;;;;;21.30;49.96;100389.97;5081105;27;45529;-61
2022/06/21 03:58:37;;;;;;;;;11.67;11.33;;;;;21.29;50.16;100396.28;5097875;27;45504;-59
2022/06/21 04:01:18;;;;;;;;;13.00;11.67;;;;;21.29;49.90;100392.78;5098123;27;45507;-59
2022/06/21 04:03:47;;;;;;;;;12.33;12.33;;;;;21.31;50.21;100396.19;5097959;27;45473;-60
2022/06/21 04:06:24;;;;;;;;;15.67;15.00;;;;;21.29;49.90;100376.72;5077388;27;45433;-60
2022/06/21 04:08:54;;;;;;;;;10.00;10.00;;;;;21.22;50.00;100370.19;5077080;28;45436;-59
2022/06/21 04:11:30;;;;;;;;;12.00;12.00;;;;;21.19;50.39;100382.84;5058341;28;45492;-60
2022/06/21 04:14:04;;;;;;;;;11.67;11.67;;;;;21.09;50.78;100365.00;5077660;27;45532;-58
2022/06/21 04:16:42;;;;;;;;;13.67;13.67;;;;;21.07;50.96;100364.31;5076841;28;46480;-60
2022/06/21 04:19:34;;;;;;;;;13.33;13.33;;;;;21.06;51.29;100354.56;5076864;28;45608;-60
2022/06/21 04:21:59;;;;;;;;;14.00;13.67;;;;;21.05;51.12;100350.22;5076176;28;45457;-60
2022/06/21 04:24:47;;;;;;;;;10.00;10.00;;;;;21.03;50.99;100341.47;5077101;27;45677;-60
2022/06/21 04:27:12;;;;;;;;;10.67;10.67;;;;;21.04;51.45;100344.03;5076780;28;46640;-59
2022/06/21 04:29:47;;;;;;;;;11.67;10.67;;;;;21.02;51.91;100335.25;5076916;28;45504;-60
2022/06/21 04:32:25;;;;;;;;;15.33;14.00;;;;;21.05;51.64;100336.84;5076758;28;45575;-60
2022/06/21 04:34:53;;;;;;;;;15.33;12.67;;;;;21.04;52.07;100335.16;5076963;28;45977;-59
2022/06/21 04:37:29;;;;;;;;;13.00;11.00;;;;;21.01;51.77;100327.34;5076711;27;45455;-58
2022/06/21 04:40:37;;;;;;;;;12.00;12.00;;;;;20.96;52.12;100317.91;5076672;28;45451;-60
2022/06/21 04:43:34;;;;;;;;;12.00;12.00;;;;;20.95;52.07;100315.34;5096126;27;45600;-61
2022/06/21 04:46:10;;;;;;;;;12.67;12.67;;;;;20.94;52.32;100317.19;5073357;27;45717;-58
2022/06/21 04:48:42;;;;;;;;;13.33;13.33;;;;;20.92;52.05;100329.81;5097167;27;45597;-58
2022/06/21 04:51:24;;;;;;;;;13.00;12.00;;;;;20.92;52.85;100337.00;5097179;27;45411;-58
2022/06/21 04:54:02;;;;;;;;;11.33;11.33;;;;;20.90;52.13;100336.28;5083463;27;45617;-61
2022/06/21 04:56:39;;;;;;;;;12.33;12.33;;;;;20.91;52.53;100335.31;5076783;28;45566;-59
2022/06/21 04:59:12;;;;;;;;;16.67;12.33;;;;;20.88;52.95;100328.41;5076400;28;45673;-58
2022/06/21 05:01:38;;;;;;;;;13.00;12.00;;;;;20.88;52.22;100344.44;5078173;27;45649;-58
2022/06/21 05:04:15;;;;;;;;;12.00;12.00;;;;;20.88;52.64;100360.47;5096914;27;45484;-59
2022/06/21 05:06:42;;;;;;;;;14.00;14.00;;;;;20.87;52.78;100364.09;5096855;27;45511;-59
2022/06/21 05:09:15;;;;;;;;;13.00;12.00;;;;;20.84;52.45;100353.66;5096677;27;45537;-59
2022/06/21 05:11:41;;;;;;;;;14.33;12.67;;;;;20.85;52.13;100368.75;5096601;27;45470;-60
2022/06/21 05:14:17;;;;;;;;;12.33;11.33;;;;;20.80;52.17;100365.59;5081732;27;45505;-58
2022/06/21 05:16:44;;;;;;;;;13.00;13.00;;;;;20.80;52.50;100373.63;5057630;28;45407;-58
2022/06/21 05:19:36;;;;;;;;;11.33;11.33;;;;;20.81;52.77;100390.50;5075671;28;46479;-58
2022/06/21 05:22:19;;;;;;;;;12.00;12.00;;;;;20.82;52.94;100395.75;5086038;27;45489;-59
2022/06/21 05:24:45;;;;;;;;;12.33;12.33;;;;;20.84;52.29;100391.09;5075940;28;45446;-60
2022/06/21 05:27:31;;;;;;;;;11.67;11.67;;;;;20.87;52.94;100385.50;5075749;28;45522;-60
2022/06/21 05:30:19;;;;;;;;;12.67;12.33;;;;;20.87;52.62;100376.63;5023786;28;45533;-60
2022/06/21 05:32:50;;;;;;;;;13.67;12.67;;;;;20.87;52.68;100372.13;5075795;28;45481;-60
2022/06/21 05:35:22;;;;;;;;;13.00;13.00;;;;;20.85;51.83;100384.78;5075689;28;45524;-60
2022/06/21 05:37:56;;;;;;;;;12.67;12.67;;;;;20.81;52.05;100377.97;5075522;28;45526;-61
2022/06/21 05:40:42;;;;;;;;;13.33;13.33;;;;;20.81;52.29;100375.31;5093391;27;45528;-66
2022/06/21 05:43:15;;;;;;;;;15.00;14.00;;;;;20.81;52.47;100386.00;5081686;27;45596;-64
2022/06/21 05:45:46;;;;;;;;;12.33;12.33;;;;;20.79;53.01;100373.72;5088176;27;45506;-64
2022/06/21 05:48:21;;;;;;;;;13.00;13.00;;;;;20.83;52.52;100376.03;5078984;27;45458;-65
2022/06/21 05:50:47;;;;;;;;;13.67;13.67;;;;;20.85;52.57;100368.75;5095414;27;47767;-64
2022/06/21 05:53:37;;;;;;;;;12.00;12.00;;;;;20.80;52.55;100372.78;5078942;27;45529;-68
2022/06/21 05:56:10;;;;;;;;;13.33;13.33;;;;;20.70;52.81;100375.34;5082133;27;45566;-66
2022/06/21 05:58:41;;;;;;;;;13.67;13.67;;;;;20.77;52.69;100375.69;5075823;27;45672;-65
2022/06/21 06:01:15;;;;;;;;;15.67;13.67;;;;;20.76;52.66;100371.31;5072376;27;47942;-65
2022/06/21 06:03:44;;;;;;;;;13.33;13.33;;;;;20.78;52.54;100370.22;5080925;27;45621;-69
2022/06/21 06:06:13;;;;;;;;;11.33;11.33;;;;;20.84;52.28;100375.06;5075668;27;45663;-62
2022/06/21 06:08:45;;;;;;;;;12.67;12.67;;;;;20.88;52.29;100371.16;5072945;28;45535;-65
2022/06/21 06:11:18;;;;;;;;;14.67;14.67;;;;;20.93;52.33;100368.13;5075149;27;45651;-61
2022/06/21 06:13:45;;;;;;;;;12.33;12.00;;;;;20.91;52.05;100365.56;5074289;28;45544;-60
2022/06/21 06:16:23;;;;;;;;;13.00;13.00;;;;;20.94;52.14;100369.81;5074547;27;45511;-61
2022/06/21 06:18:58;;;;;;;;;14.67;13.00;;;;;20.97;51.66;100364.22;5092709;27;45605;-63
2022/06/21 06:21:42;;;;;;;;;13.33;13.33;;;;;20.96;51.82;100366.03;5094800;27;45545;-60
2022/06/21 06:24:14;;;;;;;;;13.00;13.00;;;;;20.99;51.62;100364.09;5092882;27;45488;-62
2022/06/21 06:26:44;;;;;;;;;14.33;13.33;;;;;20.99;52.01;100361.41;5093163;27;45488;-62
2022/06/21 06:29:23;;;;;;;;;15.00;15.00;;;;;21.00;51.94;100373.81;5094102;27;45529;-62
2022/06/21 06:31:59;;;;;;;;;14.67;13.00;;;;;21.00;51.78;100371.97;5093949;27;46202;-64
2022/06/21 06:34:29;;;;;;;;;14.33;13.00;;;;;20.96;51.56;100376.72;5093137;27;45469;-61
2022/06/21 06:37:04;;;;;;;;;13.33;13.33;;;;;20.98;51.74;100371.25;5094636;27;45405;-64
2022/06/21 06:39:33;;;;;;;;;12.33;12.33;;;;;21.00;51.67;100376.47;5094632;27;45386;-61
2022/06/21 06:42:07;;;;;;;;;16.00;16.00;;;;;20.99;51.99;100374.78;5093344;27;46363;-61
2022/06/21 06:44:37;;;;;;;;;13.33;13.33;;;;;21.01;51.99;100389.72;5094215;27;45453;-62
2022/06/21 06:47:04;;;;;;;;;13.67;13.67;;;;;21.05;52.27;100390.31;5094513;27;45484;-64
2022/06/21 06:49:43;;;;;;;;;15.00;14.67;;;;;21.03;51.97;100400.28;5094163;27;45595;-63
2022/06/21 06:52:17;;;;;;;;;16.00;15.00;;;;;21.05;51.94;100395.66;5094316;27;45896;-62
2022/06/21 06:55:01;;;;;;;;;14.67;14.67;;;;;21.09;51.92;100386.41;5094032;27;45507;-63
2022/06/21 06:57:32;;;;;;;;;14.00;14.00;;;;;21.08;51.93;100392.72;5094209;27;45503;-62
2022/06/21 06:59:59;;;;;;;;;13.67;13.67;;;;;21.05;52.09;100396.50;5094415;27;45512;-65
2022/06/21 07:02:32;;;;;;;;;17.00;15.67;;;;;20.99;52.17;100402.38;5075674;27;47243;-63
2022/06/21 07:05:25;;;;;;;;;15.33;15.33;;;;;20.95;52.19;100407.13;5094040;27;45511;-64
2022/06/21 07:07:58;;;;;;;;;16.00;16.00;;;;;20.91;52.10;100399.47;5094029;27;45481;-66
2022/06/21 07:10:26;;;;;;;;;14.00;14.00;;;;;20.90;52.93;100409.34;5094086;27;45588;-62
2022/06/21 07:12:54;;;;;;;;;16.67;15.33;;;;;20.94;53.40;100429.47;5093738;27;47121;-62
2022/06/21 07:15:54;;;;;;;;;19.33;18.00;;;;;21.03;52.92;100435.03;5092355;27;45482;-62
2022/06/21 07:18:29;;;;;;;;;18.00;18.00;;;;;21.10;52.94;100425.56;5037885;27;45498;-64
2022/06/21 07:20:55;;;;;;;;;16.00;16.00;;;;;21.14;52.91;100425.19;5093846;27;45497;-64
2022/06/21 07:23:24;;;;;;;;;21.00;21.00;;;;;21.21;52.49;100435.38;5093511;27;46287;-64
2022/06/21 07:26:17;;;;;;;;;19.00;19.00;;;;;21.22;52.56;100437.06;5093716;27;45604;-63
2022/06/21 07:28:56;;;;;;;;;24.00;21.33;;;;;21.21;52.17;100433.53;5093708;27;45551;-63
2022/06/21 07:31:41;;;;;;;;;18.00;17.00;;;;;21.20;52.69;100431.84;5093762;27;45632;-62
2022/06/21 07:34:21;;;;;;;;;16.00;15.00;;;;;21.23;52.46;100447.63;5093615;27;46369;-63
2022/06/21 07:36:49;;;;;;;;;17.67;16.33;;;;;21.26;52.78;100452.72;5093551;27;45465;-64
2022/06/21 07:39:39;;;;;;;;;14.67;14.67;;;;;21.30;52.82;100453.31;5093747;27;45445;-63
2022/06/21 07:42:12;;;;;;;;;16.67;15.67;;;;;21.34;52.68;100452.09;5093431;27;45453;-64
2022/06/21 07:44:47;;;;;;;;;17.00;15.33;;;;;21.35;52.52;100451.97;5093905;27;45526;-63
2022/06/21 07:47:21;;;;;;;;;17.00;17.00;;;;;21.36;52.66;100451.00;5097291;27;45469;-62
2022/06/21 07:50:10;;;;;;;;;14.33;14.00;;;;;21.39;52.43;100450.78;5097428;27;45608;-65
2022/06/21 07:52:45;;;;;;;;;17.00;14.67;;;;;21.44;52.43;100457.56;5078829;27;45579;-64
2022/06/21 07:55:25;;;;;;;;;21.67;19.33;;;;;21.50;52.81;100455.22;5097116;27;45510;-62
2022/06/21 07:58:00;;;;;;;;;17.67;17.67;;;;;21.60;52.46;100447.25;5097132;27;45438;-60
2022/06/21 08:06:40;;;;;;;;;18.00;17.00;;;;;21.69;52.32;100438.47;5097128;27;45534;-61
2022/06/21 08:08:54;;;;;;;;;19.33;18.33;;;;;21.90;52.29;100448.34;5096898;27;45430;-62
2022/06/21 08:11:24;;;;;;;;;18.00;17.00;;;;;21.92;52.62;100443.69;5096830;27;45492;-61
2022/06/21 08:13:49;;;;;;;;;20.33;19.67;;;;;21.92;52.63;100441.84;5096836;27;45505;-62
2022/06/21 08:16:18;;;;;;;;;18.33;16.33;;;;;21.93;52.66;100440.06;5096613;27;46528;-62
2022/06/21 08:18:58;;;;;;;;;25.33;25.33;;;;;21.95;52.83;100440.75;5095168;27;45485;-62
2022/06/21 08:21:37;;;;;;;;;19.67;18.00;;;;;21.99;53.01;100444.88;5078091;27;45543;-64
2022/06/21 08:24:12;;;;;;;;;18.67;18.67;;;;;22.05;52.85;100457.72;5096766;27;45494;-61
2022/06/21 08:27:05;;;;;;;;;16.00;15.00;;;;;22.08;53.02;100461.97;5096399;27;45907;-61
2022/06/21 08:29:58;;;;;;;;;18.00;18.00;;;;;22.09;52.68;100456.50;5095494;27;45508;-65
2022/06/21 08:32:51;;;;;;;;;22.67;21.00;;;;;22.16;52.52;100465.69;5095957;27;45472;-61
2022/06/21 08:35:24;;;;;;;;;14.67;12.67;;;;;22.23;52.98;100471.41;5096383;27;45500;-63
2022/06/21 08:38:09;;;;;;;;;19.33;18.33;;;;;22.26;52.71;100469.31;5096232;27;45520;-60
2022/06/21 08:40:43;;;;;;;;;26.33;24.67;;;;;22.34;52.52;100473.16;5095809;27;45425;-62
2022/06/21 08:43:14;;;;;;;;;19.33;19.33;;;;;22.38;52.34;100478.13;5095773;27;45366;-61
2022/06/21 08:45:42;;;;;;;;;18.33;17.00;;;;;22.33;52.67;100474.16;5095737;27;45672;-65
2022/06/21 08:48:41;;;;;;;;;16.33;16.33;;;;;22.37;52.59;100473.72;5096017;27;47455;-64
2022/06/21 08:51:30;;;;;;;;;16.33;15.33;;;;;22.47;52.70;100473.78;5096006;27;45477;-65
2022/06/21 08:54:26;;;;;;;;;20.00;18.33;;;;;22.54;52.68;100466.91;5080488;27;45504;-62
2022/06/21 08:57:00;;;;;;;;;16.00;16.00;;;;;22.60;52.80;100463.69;5095652;27;45515;-60
2022/06/21 08:59:28;;;;;;;;;20.00;18.33;;;;;22.64;52.96;100453.53;5095926;27;45500;-65
2022/06/21 09:02:19;;;;;;;;;22.33;20.67;;;;;22.67;52.96;100448.75;5095478;27;45415;-62
2022/06/21 09:05:18;;;;;;;;;19.67;19.67;;;;;22.61;53.67;100445.75;5095734;27;45485;-62
2022/06/21 09:07:49;;;;;;;;;17.67;16.67;;;;;22.58;53.48;100446.03;5095987;27;45396;-61
2022/06/21 09:10:52;;;;;;;;;18.33;18.33;;;;;22.59;53.49;100448.56;5095867;27;46161;-62
2022/06/21 09:13:52;;;;;;;;;18.33;18.33;;;;;22.60;53.21;100460.16;5095821;27;45601;-63
2022/06/21 09:16:33;;;;;;;;;22.00;20.00;;;;;22.62;53.48;100440.28;5095782;27;45436;-63
2022/06/21 09:19:37;;;;;;;;;17.67;16.67;;;;;22.74;53.03;100456.25;5095512;27;45568;-63
2022/06/21 09:22:17;;;;;;;;;16.33;16.33;;;;;22.45;53.71;100457.00;5052149;27;45507;-63
2022/06/21 09:24:58;;;;;;;;;20.67;20.67;;;;;22.36;54.24;100447.09;5096176;27;45594;-63
2022/06/21 09:27:34;;;;;;;;;18.67;16.33;;;;;22.37;54.00;100444.25;5096033;27;45507;-62
2022/06/21 09:30:10;;;;;;;;;17.67;17.67;;;;;22.50;54.09;100450.22;5096257;27;45552;-64
2022/06/21 09:33:13;;;;;;;;;15.00;15.00;;;;;22.57;53.82;100445.19;5095925;27;46455;-61
2022/06/21 09:36:06;;;;;;;;;17.67;17.67;;;;;22.66;53.59;100449.72;5096029;27;45617;-61
2022/06/21 09:38:39;;;;;;;;;21.33;20.67;;;;;22.71;53.67;100450.19;5095965;27;45505;-62
2022/06/21 09:41:18;;;;;;;;;23.00;20.67;;;;;22.78;53.57;100453.16;5095850;27;45475;-61
2022/06/21 09:44:01;;;;;;;;;18.33;16.67;;;;;22.82;53.28;100449.22;5095755;27;46143;-64
2022/06/21 09:46:46;;;;;;;;;17.33;17.00;;;;;22.81;53.64;100439.50;5095792;27;45511;-63
2022/06/21 09:49:21;;;;;;;;;19.33;17.00;;;;;22.84;53.74;100441.91;5095198;27;45484;-63
2022/06/21 09:52:30;;;;;;;;;18.67;18.33;;;;;22.83;53.37;100442.03;5094403;27;45512;-64
2022/06/21 09:55:11;;;;;;;;;19.33;18.67;;;;;22.81;53.21;100428.75;5029668;27;47281;-64
2022/06/21 09:57:55;;;;;;;;;19.67;19.67;;;;;22.83;53.35;100424.09;5094721;27;45507;-65
2022/06/21 10:00:30;;;;;;;;;17.67;17.67;;;;;22.85;53.79;100427.50;5094780;27;45506;-61
2022/06/21 10:03:03;;;;;;;;;49.00;40.00;;;;;22.86;53.70;100414.91;5095340;27;45501;-62
2022/06/21 10:05:51;;;;;;;;;14.33;14.33;;;;;22.88;53.67;100421.00;5095364;27;46291;-61
2022/06/21 10:08:24;;;;;;;;;21.33;20.00;;;;;22.87;53.69;100419.31;5094622;27;45539;-63
2022/06/21 10:11:01;;;;;;;;;24.00;22.33;;;;;22.87;53.56;100413.97;5095284;27;45496;-65
2022/06/21 10:13:39;;;;;;;;;22.67;21.67;;;;;22.90;53.57;100411.84;5088746;27;45507;-60
2022/06/21 10:16:22;;;;;;;;;23.00;23.00;;;;;22.90;53.72;100411.84;5078333;27;45628;-60
2022/06/21 10:19:20;;;;;;;;;18.33;16.33;;;;;22.89;54.00;100412.84;5095314;27;45414;-63
2022/06/21 10:22:18;;;;;;;;;20.00;20.00;;;;;22.88;54.07;100400.38;5053484;27;45453;-62
2022/06/21 10:25:21;;;;;;;;;23.33;22.67;;;;;22.94;53.63;100401.66;5095137;27;45597;-63
2022/06/21 10:27:59;;;;;;;;;24.00;23.33;;;;;22.79;53.95;100392.34;5075850;27;46537;-64
2022/06/21 10:30:43;;;;;;;;;21.33;21.33;;;;;22.82;53.92;100384.88;5094967;27;45553;-64
2022/06/21 10:33:20;;;;;;;;;21.67;21.67;;;;;22.89;53.63;100377.97;5095280;27;45445;-64
2022/06/21 10:35:58;;;;;;;;;23.00;21.67;;;;;22.95;53.61;100381.94;5094615;27;45685;-63
2022/06/21 10:38:42;;;;;;;;;21.67;20.67;;;;;23.01;53.48;100376.03;5094411;27;45532;-62
2022/06/21 10:41:31;;;;;;;;;20.67;20.33;;;;;23.07;53.79;100378.13;5093803;27;45552;-62
2022/06/21 10:43:59;;;;;;;;;24.33;22.33;;;;;23.15;53.43;100375.59;5094493;27;45457;-63
2022/06/21 10:46:38;;;;;;;;;23.00;23.00;;;;;23.21;53.21;100367.97;5094589;27;45485;-62
2022/06/21 10:49:11;;;;;;;;;25.00;23.67;;;;;23.20;52.92;100377.88;5094494;27;45515;-61
2022/06/21 10:52:04;;;;;;;;;24.67;24.67;;;;;23.23;53.05;100366.00;5094562;27;45416;-64
2022/06/21 10:54:45;;;;;;;;;24.67;22.67;;;;;23.24;53.25;100360.50;5075947;27;45976;-63
2022/06/21 10:57:29;;;;;;;;;20.33;19.33;;;;;23.27;53.14;100359.38;5075866;27;45490;-63
2022/06/21 11:03:18;;;;;;;;;22.33;21.67;;;;;23.42;53.02;100351.72;5093665;27;45488;-63
2022/06/21 11:06:00;;;;;;;;;21.33;19.00;;;;;23.43;52.51;100358.78;5093938;27;45496;-62
2022/06/21 11:08:29;;;;;;;;;21.00;20.00;;;;;23.47;52.43;100353.00;5076022;27;45495;-62
2022/06/21 11:11:36;;;;;;;;;21.67;20.33;;;;;23.51;52.38;100349.03;5093942;27;46401;-60
2022/06/21 11:14:23;;;;;;;;;22.33;20.00;;;;;23.49;52.04;100337.59;5093539;27;45398;-64
2022/06/21 11:17:09;;;;;;;;;18.33;18.33;;;;;23.62;52.83;100342.66;5093793;27;45417;-63
2022/06/21 11:20:15;;;;;;;;;17.33;15.67;;;;;23.70;52.21;100347.31;5095631;27;45584;-63
2022/06/21 11:22:50;;;;;;;;;21.33;19.67;;;;;23.75;52.37;100348.59;5096061;27;46259;-63
2022/06/21 11:25:34;;;;;;;;;18.67;18.67;;;;;23.81;52.03;100348.00;5055842;27;45477;-61
2022/06/21 11:28:29;;;;;;;;;24.33;24.33;;;;;23.85;51.76;100343.19;5079912;27;45443;-62
2022/06/21 11:31:06;;;;;;;;;54.33;44.67;;;;;23.89;51.92;100341.91;5098631;27;45427;-63
2022/06/21 11:33:49;;;;;;;;;51.33;43.33;;;;;23.91;51.72;100331.88;5098845;27;46077;-61
2022/06/21 11:36:36;;;;;;;;;24.33;24.00;;;;;23.99;51.34;100345.41;5079693;27;45380;-62
2022/06/21 11:39:05;;;;;;;;;24.33;24.33;;;;;24.02;51.25;100337.06;5085519;27;45559;-63
2022/06/21 11:42:08;;;;;;;;;34.67;32.67;;;;;24.06;50.81;100345.66;5090229;27;45588;-62
2022/06/21 11:45:12;;;;;;;;;23.67;20.33;;;;;24.10;50.67;100336.31;5079075;27;45645;-64
2022/06/21 11:47:54;;;;;;;;;22.00;18.00;;;;;24.16;50.99;100332.19;5097235;27;45527;-62
2022/06/21 11:50:30;;;;;;;;;24.33;24.00;;;;;24.19;50.91;100332.72;5097672;27;45477;-64
2022/06/21 11:53:33;;;;;;;;;21.67;19.33;;;;;24.23;51.17;100333.25;5077209;28;45629;-62
2022/06/21 11:56:18;;;;;;;;;22.67;21.67;;;;;24.28;50.67;100338.19;5077021;28;45631;-64
2022/06/21 11:58:55;;;;;;;;;19.75;18.75;;;;;24.30;50.36;100337.06;5077152;28;45500;-61
2022/06/21 12:01:55;;;;;;;;;19.50;19.50;;;;;24.38;50.47;100337.16;5059126;28;45482;-63
2022/06/21 12:04:45;;;;;;;;;24.00;23.00;;;;;24.43;50.65;100342.09;5087565;27;45541;-60
2022/06/21 12:07:23;;;;;;;;;20.50;20.50;;;;;24.51;50.29;100336.00;5097416;27;45606;-62
2022/06/21 12:10:03;;;;;;;;;18.75;18.75;;;;;24.56;49.68;100333.72;5086677;27;45446;-61